Time;durP1;ratioP1;P1;durP2;ratioP2;P2;SDS_P1;SDS_P2;PMS_P1;PMS_P2;Temp;Humidity;BMP_temperature;BMP_pressure;BME280_temperature;BME280_humidity;BME280_pressure;Samples;Min_cycle;Max_cycle;Signal;HPM_P1;HPM_P2
2022/04/13 00:01:17;;;;;;;8.23;6.40;;;13.80;99.90;;;;;;5060269;28;20037;-79
2022/04/13 00:03:43;;;;;;;10.97;6.37;;;13.80;99.90;;;;;;5062718;28;20102;-79
2022/04/13 00:06:09;;;;;;;9.77;6.97;;;13.70;99.90;;;;;;5066315;28;20132;-78
2022/04/13 00:08:35;;;;;;;8.80;6.50;;;13.60;99.90;;;;;;5065300;28;20530;-79
2022/04/13 00:11:02;;;;;;;11.10;6.80;;;13.60;99.90;;;;;;5027534;28;20048;-79
2022/04/13 00:13:28;;;;;;;10.00;6.93;;;13.50;99.90;;;;;;5035639;28;20049;-79
2022/04/13 00:15:53;;;;;;;14.33;7.03;;;13.40;99.90;;;;;;5066206;28;20071;-78
2022/04/13 00:18:19;;;;;;;9.73;7.00;;;13.30;99.90;;;;;;5049939;28;20049;-78
2022/04/13 00:20:45;;;;;;;13.07;7.30;;;13.30;99.90;;;;;;5057637;28;20062;-80
2022/04/13 00:23:11;;;;;;;8.63;6.57;;;13.20;99.90;;;;;;5060896;28;20048;-80
2022/04/13 00:25:39;;;;;;;7.93;6.73;;;13.20;99.90;;;;;;5050076;28;20029;-80
2022/04/13 00:28:06;;;;;;;13.93;7.43;;;13.10;99.90;;;;;;5044679;28;20045;-79
2022/04/13 00:30:32;;;;;;;8.83;7.27;;;13.10;99.90;;;;;;5057181;28;20081;-79
2022/04/13 00:32:58;;;;;;;11.43;6.80;;;13.10;99.90;;;;;;5065268;28;20052;-78
2022/04/13 00:35:23;;;;;;;9.70;7.00;;;13.00;99.90;;;;;;5060245;28;20041;-80
2022/04/13 00:37:49;;;;;;;9.10;7.13;;;13.00;99.90;;;;;;5055185;28;20048;-78
2022/04/13 00:40:15;;;;;;;10.83;7.30;;;12.90;99.90;;;;;;5066936;28;20048;-78
2022/04/13 00:42:41;;;;;;;9.47;7.10;;;12.90;99.90;;;;;;5055632;28;20064;-80
2022/04/13 00:45:08;;;;;;;12.97;7.50;;;12.80;99.90;;;;;;5050940;28;20052;-81
2022/04/13 00:47:39;;;;;;;10.67;7.30;;;12.80;99.90;;;;;;5062706;28;20041;-79
2022/04/13 00:50:05;;;;;;;10.07;7.23;;;12.80;99.90;;;;;;5057110;28;20159;-79
2022/04/13 00:52:35;;;;;;;10.70;8.03;;;12.80;99.90;;;;;;5035468;28;20052;-79
2022/04/13 00:55:02;;;;;;;14.13;8.10;;;12.80;99.90;;;;;;5063128;28;20044;-79
2022/04/13 00:57:32;;;;;;;10.10;7.73;;;12.90;99.90;;;;;;5057924;28;20059;-80
2022/04/13 00:59:59;;;;;;;11.73;7.37;;;12.90;99.90;;;;;;5047023;28;20033;-80
2022/04/13 01:02:29;;;;;;;9.13;7.50;;;12.90;99.90;;;;;;5061954;28;20129;-82
2022/04/13 01:04:57;;;;;;;11.17;7.77;;;12.90;99.90;;;;;;5062970;28;20045;-79
2022/04/13 01:07:24;;;;;;;10.17;7.97;;;12.80;99.90;;;;;;5063097;28;20041;-79
2022/04/13 01:09:50;;;;;;;11.63;7.67;;;12.80;99.90;;;;;;5047135;28;20045;-81
2022/04/13 01:12:16;;;;;;;10.40;6.97;;;12.80;99.90;;;;;;5042094;28;20049;-78
2022/04/13 01:14:42;;;;;;;11.40;7.87;;;12.70;99.90;;;;;;5067078;28;20040;-79
2022/04/13 01:17:07;;;;;;;11.63;8.17;;;12.70;99.90;;;;;;5062209;28;20049;-79
2022/04/13 01:19:35;;;;;;;13.13;9.20;;;12.60;99.90;;;;;;5060989;28;20073;-79
2022/04/13 01:22:15;;;;;;;13.50;8.43;;;12.60;99.90;;;;;;5058574;23;20060;-77
2022/04/13 01:24:41;;;;;;;12.47;8.60;;;12.60;99.90;;;;;;5051793;28;20083;-76
2022/04/13 01:27:07;;;;;;;11.30;7.77;;;12.70;99.90;;;;;;5030045;28;20450;-76
2022/04/13 01:29:32;;;;;;;11.03;7.93;;;12.70;99.90;;;;;;5038540;28;20045;-77
2022/04/13 01:31:58;;;;;;;15.10;9.00;;;12.70;99.90;;;;;;4997283;28;20045;-78
2022/04/13 01:34:24;;;;;;;11.77;7.83;;;12.60;99.90;;;;;;5028864;28;20079;-77
2022/04/13 01:36:49;;;;;;;9.63;7.93;;;12.60;99.90;;;;;;5013301;28;20508;-78
2022/04/13 01:39:16;;;;;;;8.73;7.20;;;12.60;99.90;;;;;;5014112;28;20048;-77
2022/04/13 01:41:42;;;;;;;11.60;8.77;;;12.50;99.90;;;;;;5029432;28;20128;-77
2022/04/13 01:44:08;;;;;;;11.50;8.70;;;12.50;99.90;;;;;;5012959;28;20473;-77
2022/04/13 01:46:34;;;;;;;12.77;9.20;;;12.40;99.90;;;;;;5013913;28;20441;-77
2022/04/13 01:48:59;;;;;;;12.17;8.70;;;12.40;99.90;;;;;;5012764;28;20501;-77
2022/04/13 01:51:25;;;;;;;14.23;8.67;;;12.30;99.90;;;;;;5030340;28;20531;-77
2022/04/13 01:53:52;;;;;;;9.47;7.33;;;12.30;99.90;;;;;;5005982;28;20497;-77
2022/04/13 01:56:19;;;;;;;7.97;6.73;;;12.20;99.90;;;;;;5028164;28;20049;-78
2022/04/13 01:58:44;;;;;;;12.03;8.00;;;12.10;99.90;;;;;;5013020;28;20116;-78
2022/04/13 02:01:10;;;;;;;11.47;8.73;;;12.00;99.90;;;;;;4994355;28;20137;-78
2022/04/13 02:03:36;;;;;;;14.33;8.57;;;12.00;99.90;;;;;;5005458;28;20130;-77
2022/04/13 02:06:03;;;;;;;10.10;8.40;;;11.90;99.90;;;;;;5009149;28;20072;-77
2022/04/13 02:08:30;;;;;;;13.07;8.67;;;11.90;99.90;;;;;;5010106;28;20049;-77
2022/04/13 02:10:55;;;;;;;13.93;8.23;;;11.80;99.90;;;;;;5011096;28;20128;-78
2022/04/13 02:13:22;;;;;;;13.23;8.87;;;11.80;99.90;;;;;;5032490;28;20128;-77
2022/04/13 02:15:49;;;;;;;11.03;8.53;;;11.70;99.90;;;;;;4998492;28;20390;-77
2022/04/13 02:18:15;;;;;;;13.97;9.03;;;11.60;99.90;;;;;;5041219;28;20048;-77
2022/04/13 02:20:40;;;;;;;14.57;8.73;;;11.70;99.90;;;;;;5013751;28;20136;-77
2022/04/13 02:23:06;;;;;;;14.13;8.83;;;11.60;99.90;;;;;;5012302;28;20136;-76
2022/04/13 02:25:35;;;;;;;12.60;9.07;;;11.60;99.90;;;;;;5012721;28;20436;-77
2022/04/13 02:28:01;;;;;;;15.87;9.63;;;11.60;99.90;;;;;;5028845;28;20041;-77
2022/04/13 02:30:28;;;;;;;11.87;9.90;;;11.60;99.90;;;;;;5013214;28;20041;-76
2022/04/13 02:32:54;;;;;;;14.60;10.17;;;11.60;99.90;;;;;;5013009;28;20502;-77
2022/04/13 02:35:20;;;;;;;13.60;10.20;;;11.50;99.90;;;;;;5012595;28;20052;-77
2022/04/13 02:37:45;;;;;;;13.10;9.60;;;11.50;99.90;;;;;;4998229;28;20049;-78
2022/04/13 02:40:12;;;;;;;11.63;9.40;;;11.50;99.90;;;;;;5012408;28;20038;-77
2022/04/13 02:42:38;;;;;;;14.23;9.50;;;11.60;99.90;;;;;;5029464;28;20095;-77
2022/04/13 02:45:05;;;;;;;12.10;9.30;;;11.60;99.90;;;;;;5012452;28;20037;-78
2022/04/13 02:47:33;;;;;;;11.60;9.23;;;11.50;99.90;;;;;;5013150;28;20073;-77
2022/04/13 02:50:00;;;;;;;12.87;9.07;;;11.60;99.90;;;;;;4994224;28;20057;-77
2022/04/13 02:52:29;;;;;;;13.27;10.10;;;11.60;99.90;;;;;;5012667;28;20037;-77
2022/04/13 02:54:55;;;;;;;14.30;10.80;;;11.60;99.90;;;;;;5019692;28;20133;-77
2022/04/13 02:57:21;;;;;;;13.47;9.10;;;11.50;99.90;;;;;;5023690;28;20083;-78
2022/04/13 02:59:48;;;;;;;15.73;11.27;;;11.50;99.90;;;;;;4993745;28;20049;-77
2022/04/13 03:02:14;;;;;;;12.43;9.17;;;11.50;99.90;;;;;;5005262;28;20044;-77
2022/04/13 03:04:48;;;;;;;19.17;8.77;;;11.40;99.90;;;;;;5025539;28;20053;-77
2022/04/13 03:07:16;;;;;;;12.07;10.05;;;11.40;99.90;;;;;;5008783;28;20056;-77
2022/04/13 03:09:42;;;;;;;15.87;9.70;;;11.40;99.90;;;;;;5029374;28;20068;-77
2022/04/13 03:12:09;;;;;;;10.53;9.27;;;11.30;99.90;;;;;;4997498;28;20441;-77
2022/04/13 03:14:35;;;;;;;13.30;8.50;;;11.30;99.90;;;;;;4994235;28;20041;-77
2022/04/13 03:17:01;;;;;;;13.13;10.67;;;11.20;99.90;;;;;;5028865;28;20056;-77
2022/04/13 03:19:27;;;;;;;13.90;9.77;;;11.10;99.90;;;;;;5003758;28;20060;-77
2022/04/13 03:21:54;;;;;;;14.40;10.97;;;11.10;99.90;;;;;;5015998;28;20501;-77
2022/04/13 03:24:20;;;;;;;14.10;9.83;;;11.10;99.90;;;;;;5031144;28;20053;-76
2022/04/13 03:26:46;;;;;;;13.70;10.27;;;11.00;99.90;;;;;;5016426;28;20128;-76
2022/04/13 03:29:12;;;;;;;14.93;11.03;;;11.00;99.90;;;;;;5033168;28;20136;-76
2022/04/13 03:31:37;;;;;;;14.50;10.37;;;11.00;99.90;;;;;;5038266;28;20042;-77
2022/04/13 03:34:03;;;;;;;14.73;10.73;;;11.00;99.90;;;;;;5034488;28;20595;-77
2022/04/13 03:36:29;;;;;;;15.27;10.83;;;11.00;99.90;;;;;;5013034;28;20042;-76
2022/04/13 03:38:56;;;;;;;17.93;11.43;;;11.00;99.90;;;;;;5033267;28;20136;-77
2022/04/13 03:41:21;;;;;;;16.33;10.87;;;10.90;99.90;;;;;;5031907;28;20050;-76
2022/04/13 03:43:47;;;;;;;14.63;10.67;;;11.00;99.90;;;;;;4996582;28;20051;-77
2022/04/13 03:46:13;;;;;;;17.27;11.37;;;11.00;99.90;;;;;;5040718;28;20100;-77
2022/04/13 03:48:38;;;;;;;15.83;10.63;;;11.00;99.90;;;;;;5007683;28;20506;-76
2022/04/13 03:51:04;;;;;;;18.60;11.37;;;11.10;99.90;;;;;;5005158;28;20045;-77
2022/04/13 03:53:30;;;;;;;17.30;11.10;;;11.20;99.90;;;;;;5014529;28;20042;-77
2022/04/13 03:55:57;;;;;;;15.20;11.00;;;11.30;99.90;;;;;;5032644;28;20038;-77
2022/04/13 03:58:23;;;;;;;19.57;10.67;;;11.30;99.90;;;;;;5031965;28;20080;-77
2022/04/13 04:00:48;;;;;;;15.33;10.33;;;11.40;99.90;;;;;;5031960;28;20068;-77
2022/04/13 04:03:14;;;;;;;14.50;11.17;;;11.40;99.90;;;;;;5011206;28;20073;-77
2022/04/13 04:05:40;;;;;;;19.23;12.20;;;11.50;99.90;;;;;;5020642;28;20659;-77
2022/04/13 04:08:06;;;;;;;15.27;11.57;;;11.50;99.90;;;;;;5012566;28;20080;-77
2022/04/13 04:10:32;;;;;;;18.30;11.73;;;11.50;99.90;;;;;;5030956;28;20052;-77
2022/04/13 04:12:59;;;;;;;16.30;11.13;;;11.50;99.90;;;;;;5029483;28;20046;-77
2022/04/13 04:15:25;;;;;;;18.93;11.57;;;11.60;99.90;;;;;;5032062;28;20465;-77
2022/04/13 04:17:51;;;;;;;15.07;11.90;;;11.60;99.90;;;;;;5047308;28;20504;-77
2022/04/13 04:20:17;;;;;;;18.67;11.10;;;11.60;99.90;;;;;;5032083;28;20049;-77
2022/04/13 04:22:42;;;;;;;12.93;11.10;;;11.60;99.90;;;;;;5030517;28;20416;-77
2022/04/13 04:25:09;;;;;;;16.27;10.60;;;11.60;99.90;;;;;;5014743;28;20041;-77
2022/04/13 04:27:35;;;;;;;13.90;10.27;;;11.50;99.90;;;;;;4998460;28;20045;-77
2022/04/13 04:30:03;;;;;;;12.63;10.33;;;11.40;99.90;;;;;;5032179;28;20048;-77
2022/04/13 04:32:29;;;;;;;15.77;10.77;;;11.40;99.90;;;;;;5012179;28;20054;-77
2022/04/13 04:34:54;;;;;;;15.50;10.47;;;11.30;99.90;;;;;;5025004;28;20048;-77
2022/04/13 04:37:20;;;;;;;13.37;9.93;;;11.30;99.90;;;;;;5009934;28;20050;-77
2022/04/13 04:39:46;;;;;;;18.97;10.50;;;11.20;99.90;;;;;;5003529;28;20489;-76
2022/04/13 04:42:12;;;;;;;14.50;10.20;;;11.20;99.90;;;;;;5031681;28;20119;-77
2022/04/13 04:44:38;;;;;;;14.23;10.87;;;11.20;99.90;;;;;;4997184;28;20084;-77
2022/04/13 04:47:05;;;;;;;18.03;11.43;;;11.10;99.90;;;;;;4995291;28;20395;-77
2022/04/13 04:49:31;;;;;;;15.97;11.37;;;11.10;99.90;;;;;;5012183;28;20046;-77
2022/04/13 04:51:57;;;;;;;16.87;10.53;;;11.10;99.90;;;;;;5025464;28;20053;-77
2022/04/13 04:54:22;;;;;;;15.50;10.33;;;11.10;99.90;;;;;;5031001;28;20037;-76
2022/04/13 04:56:48;;;;;;;15.70;10.37;;;11.10;99.90;;;;;;5014282;28;20042;-77
2022/04/13 04:59:15;;;;;;;16.53;10.97;;;11.10;99.90;;;;;;5031276;28;20087;-77
2022/04/13 05:01:41;;;;;;;15.50;11.13;;;11.10;99.90;;;;;;5029834;28;20060;-76
2022/04/13 05:04:08;;;;;;;20.13;12.37;;;11.10;99.90;;;;;;5031379;28;20049;-77
2022/04/13 05:06:34;;;;;;;14.93;11.20;;;11.10;99.90;;;;;;5010991;28;20081;-77
2022/04/13 05:09:00;;;;;;;17.03;12.10;;;11.10;99.90;;;;;;5013404;28;20065;-77
2022/04/13 05:11:26;;;;;;;16.47;11.67;;;11.20;99.90;;;;;;5027611;28;20124;-77
2022/04/13 05:13:52;;;;;;;18.50;11.70;;;11.20;99.90;;;;;;5020211;28;20088;-77
2022/04/13 05:16:18;;;;;;;16.23;11.77;;;11.20;99.90;;;;;;5030569;28;20489;-77
2022/04/13 05:18:48;;;;;;;17.93;11.60;;;11.20;99.90;;;;;;5013846;28;20057;-77
2022/04/13 05:21:15;;;;;;;18.83;12.17;;;11.30;99.90;;;;;;5030604;28;20049;-77
2022/04/13 05:23:42;;;;;;;20.20;12.93;;;11.30;99.90;;;;;;4991133;28;20050;-77
2022/04/13 05:26:08;;;;;;;20.90;11.90;;;11.40;99.90;;;;;;5028281;28;20095;-77
2022/04/13 05:28:34;;;;;;;18.43;12.20;;;11.40;99.90;;;;;;5028163;28;20049;-77
2022/04/13 05:30:59;;;;;;;21.97;13.00;;;11.50;99.90;;;;;;5020780;28;20053;-76
2022/04/13 05:33:25;;;;;;;18.67;12.37;;;11.50;99.90;;;;;;5044400;28;20485;-77
2022/04/13 05:35:51;;;;;;;21.57;12.50;;;11.60;99.90;;;;;;5030071;28;20045;-77
2022/04/13 05:38:18;;;;;;;21.13;13.80;;;11.60;99.90;;;;;;5029950;28;20095;-77
2022/04/13 05:40:44;;;;;;;19.10;12.67;;;11.70;99.90;;;;;;5030875;28;20049;-77
2022/04/13 05:43:10;;;;;;;22.90;13.87;;;11.70;99.90;;;;;;5012502;28;20509;-77
2022/04/13 05:45:36;;;;;;;21.57;13.43;;;11.80;99.90;;;;;;5014222;28;20136;-77
2022/04/13 05:48:02;;;;;;;20.30;13.90;;;11.80;99.90;;;;;;5028620;28;20049;-77
2022/04/13 05:50:28;;;;;;;24.03;16.50;;;11.80;99.90;;;;;;5030761;28;20327;-77
2022/04/13 05:52:53;;;;;;;18.97;13.80;;;11.90;99.90;;;;;;5012537;28;20033;-77
2022/04/13 05:55:20;;;;;;;19.20;13.83;;;11.90;99.90;;;;;;5015549;28;20049;-77
2022/04/13 05:57:46;;;;;;;23.23;14.60;;;11.90;99.90;;;;;;5022054;28;20111;-76
2022/04/13 06:00:13;;;;;;;21.90;15.13;;;11.80;99.90;;;;;;5011015;28;20493;-77
2022/04/13 06:02:40;;;;;;;25.63;16.67;;;11.90;99.90;;;;;;5024433;28;20110;-76
2022/04/13 06:05:07;;;;;;;26.73;16.63;;;11.90;99.90;;;;;;5025266;28;20054;-77
2022/04/13 06:07:33;;;;;;;26.00;15.57;;;11.90;99.90;;;;;;5007861;28;20068;-75
2022/04/13 06:10:01;;;;;;;23.03;15.47;;;12.00;99.90;;;;;;5012813;28;20052;-76
2022/04/13 06:12:29;;;;;;;23.57;16.37;;;12.00;99.90;;;;;;5027958;28;20074;-77
2022/04/13 06:15:00;;;;;;;25.30;16.80;;;12.10;99.90;;;;;;5010667;28;20053;-78
2022/04/13 06:17:26;;;;;;;27.53;16.37;;;12.20;99.90;;;;;;5012645;28;20049;-77
2022/04/13 06:19:52;;;;;;;29.23;16.47;;;12.30;99.90;;;;;;5030037;28;20060;-77
2022/04/13 06:22:17;;;;;;;25.90;16.70;;;12.50;99.90;;;;;;5029235;28;20497;-77
2022/04/13 06:24:43;;;;;;;29.20;17.60;;;12.70;99.90;;;;;;5030357;28;20053;-76
2022/04/13 06:27:09;;;;;;;29.60;16.20;;;13.00;99.90;;;;;;5014249;28;20045;-77
2022/04/13 06:29:36;;;;;;;28.13;17.80;;;13.30;99.90;;;;;;5012708;28;20179;-77
2022/04/13 06:32:02;;;;;;;26.73;17.50;;;13.50;99.90;;;;;;5032074;28;20065;-77
2022/04/13 06:34:27;;;;;;;24.87;17.53;;;13.70;99.90;;;;;;5040840;28;20046;-77
2022/04/13 06:36:53;;;;;;;28.87;17.53;;;14.10;99.90;;;;;;5017465;28;20045;-76
2022/04/13 06:39:19;;;;;;;24.37;17.70;;;14.40;99.90;;;;;;5005015;28;20136;-76
2022/04/13 06:41:44;;;;;;;32.17;17.37;;;14.60;99.90;;;;;;5024011;28;20049;-77
2022/04/13 06:44:10;;;;;;;26.37;17.27;;;14.70;99.90;;;;;;5026382;28;20099;-76
2022/04/13 06:46:37;;;;;;;28.13;17.30;;;14.70;99.90;;;;;;5013770;28;20048;-76
2022/04/13 06:49:03;;;;;;;30.67;18.00;;;14.80;99.90;;;;;;5009645;28;20457;-76
2022/04/13 06:51:29;;;;;;;29.90;17.03;;;14.70;99.90;;;;;;5027489;28;20045;-76
2022/04/13 06:53:55;;;;;;;26.83;16.10;;;14.60;99.90;;;;;;4996183;28;20088;-76
2022/04/13 06:56:20;;;;;;;25.20;16.57;;;14.60;99.90;;;;;;5028458;28;20048;-76
2022/04/13 06:58:48;;;;;;;24.80;16.53;;;14.60;99.90;;;;;;5023258;28;20085;-76
2022/04/13 07:01:14;;;;;;;22.67;16.23;;;14.50;99.90;;;;;;5012622;28;20042;-75
2022/04/13 07:03:41;;;;;;;21.13;15.90;;;14.60;99.90;;;;;;5015813;28;20115;-77
2022/04/13 07:06:07;;;;;;;25.47;15.27;;;14.90;99.90;;;;;;5024471;28;20050;-76
2022/04/13 07:08:32;;;;;;;24.47;15.70;;;15.30;99.90;;;;;;5027768;28;20052;-74
2022/04/13 07:10:58;;;;;;;25.73;15.13;;;15.60;99.90;;;;;;5025803;28;20103;-75
2022/04/13 07:13:24;;;;;;;23.10;14.53;;;15.70;99.90;;;;;;5044821;28;20045;-75
2022/04/13 07:15:52;;;;;;;23.43;15.30;;;15.70;99.90;;;;;;5027750;28;20091;-76
2022/04/13 07:18:18;;;;;;;24.33;15.13;;;15.60;99.90;;;;;;5027265;28;20057;-76
2022/04/13 07:20:45;;;;;;;23.53;13.63;;;15.60;99.90;;;;;;5025325;28;20515;-80
2022/04/13 07:23:11;;;;;;;21.37;13.87;;;15.60;99.90;;;;;;5019356;28;20128;-81
2022/04/13 07:25:36;;;;;;;23.37;14.20;;;15.60;99.90;;;;;;4999501;28;20496;-80
2022/04/13 07:28:03;;;;;;;21.83;13.67;;;15.70;99.90;;;;;;5007803;28;20049;-79
2022/04/13 07:30:28;;;;;;;21.37;12.77;;;15.80;99.90;;;;;;5030892;28;20041;-78
2022/04/13 07:32:55;;;;;;;22.17;13.80;;;15.80;99.90;;;;;;5035063;28;20096;-77
2022/04/13 07:35:21;;;;;;;21.93;12.90;;;16.00;99.90;;;;;;5036678;28;20053;-77
2022/04/13 07:37:49;;;;;;;18.07;12.10;;;16.20;99.90;;;;;;5043892;28;20056;-81
2022/04/13 07:40:15;;;;;;;18.00;11.03;;;16.30;99.90;;;;;;5042356;28;20045;-78
2022/04/13 07:42:41;;;;;;;19.57;11.50;;;16.40;99.90;;;;;;5030148;28;20046;-78
2022/04/13 07:45:08;;;;;;;19.47;11.07;;;16.30;99.90;;;;;;5037038;28;20068;-77
2022/04/13 07:47:34;;;;;;;15.70;11.43;;;16.30;99.90;;;;;;5040787;28;20045;-77
2022/04/13 07:50:00;;;;;;;17.50;10.63;;;16.10;99.90;;;;;;5031672;28;20049;-77
2022/04/13 07:52:26;;;;;;;17.37;9.93;;;16.20;99.90;;;;;;5008016;28;20350;-79
2022/04/13 07:54:53;;;;;;;20.90;11.00;;;16.20;99.90;;;;;;5018356;28;20134;-80
2022/04/13 07:57:18;;;;;;;13.87;9.67;;;16.20;99.90;;;;;;5021449;28;20038;-78
2022/04/13 07:59:44;;;;;;;18.87;10.43;;;16.10;99.90;;;;;;5033900;28;20450;-77
2022/04/13 08:02:10;;;;;;;20.07;10.77;;;16.10;99.90;;;;;;5044373;28;20045;-81
2022/04/13 08:04:37;;;;;;;19.73;10.30;;;16.10;99.90;;;;;;5043050;28;20111;-78
2022/04/13 08:07:03;;;;;;;22.00;11.03;;;16.10;99.90;;;;;;5022708;28;20171;-78
2022/04/13 08:09:28;;;;;;;18.43;10.93;;;16.00;99.90;;;;;;5035353;28;20089;-79
2022/04/13 08:11:55;;;;;;;19.50;11.90;;;16.00;99.90;;;;;;5054613;28;20073;-80
2022/04/13 08:14:22;;;;;;;18.60;12.13;;;16.00;99.90;;;;;;5039771;28;20235;-77
2022/04/13 08:16:48;;;;;;;18.57;11.73;;;16.10;99.90;;;;;;5038418;28;20042;-76
2022/04/13 08:19:14;;;;;;;18.70;11.97;;;16.20;99.90;;;;;;5033820;28;20060;-76
2022/04/13 08:21:39;;;;;;;20.27;13.20;;;16.30;99.90;;;;;;5040238;28;20049;-79
2022/04/13 08:24:06;;;;;;;22.17;12.93;;;16.30;99.90;;;;;;5037905;28;20045;-80
2022/04/13 08:26:31;;;;;;;21.17;12.00;;;16.40;99.90;;;;;;5044326;28;20128;-81
2022/04/13 08:28:59;;;;;;;19.77;11.70;;;16.50;99.90;;;;;;5049465;28;20088;-81
2022/04/13 08:31:24;;;;;;;22.43;12.60;;;16.50;99.90;;;;;;5047948;28;20059;-85
2022/04/13 08:33:50;;;;;;;20.23;11.20;;;16.60;99.90;;;;;;5027074;28;20056;-81
2022/04/13 08:36:16;;;;;;;17.47;11.00;;;16.60;99.90;;;;;;5010962;28;20046;-80
2022/04/13 08:38:42;;;;;;;17.53;10.40;;;16.70;99.90;;;;;;5045205;28;20068;-79
2022/04/13 08:41:14;;;;;;;15.07;9.63;;;16.80;99.90;;;;;;5044487;28;20029;-79
2022/04/13 08:43:44;;;;;;;17.97;9.20;;;17.00;99.90;;;;;;5044856;28;20041;-80
2022/04/13 08:46:15;;;;;;;17.43;9.40;;;17.30;99.90;;;;;;5044096;28;20045;-77
2022/04/13 08:48:46;;;;;;;14.37;9.17;;;17.60;99.90;;;;;;5042051;28;20225;-79
2022/04/13 08:51:16;;;;;;;16.83;8.30;;;17.70;99.90;;;;;;5044403;28;20037;-80
2022/04/13 08:53:44;;;;;;;15.50;7.70;;;17.80;99.90;;;;;;5043773;28;20150;-81
2022/04/13 08:56:15;;;;;;;14.40;8.60;;;18.00;99.90;;;;;;5041526;28;20607;-80
2022/04/13 08:58:49;;;;;;;15.63;7.63;;;18.50;99.90;;;;;;5044706;28;20041;-80
2022/04/13 09:01:25;;;;;;;12.73;6.60;;;18.90;99.90;;;;;;5021061;28;20045;-80
2022/04/13 09:03:55;;;;;;;13.90;6.83;;;19.00;99.90;;;;;;5044491;28;20124;-80
2022/04/13 09:06:23;;;;;;;13.03;6.43;;;19.10;99.90;;;;;;5039351;28;20041;-78
2022/04/13 09:08:53;;;;;;;16.27;6.13;;;19.40;99.90;;;;;;5045034;28;20306;-78
2022/04/13 09:11:22;;;;;;;8.80;5.13;;;19.60;99.90;;;;;;5036904;28;20088;-81
2022/04/13 09:13:49;;;;;;;12.53;5.83;;;19.60;99.90;;;;;;5040949;28;20051;-84
2022/04/13 09:16:16;;;;;;;12.03;5.73;;;19.50;99.90;;;;;;5018087;28;20632;-79
2022/04/13 09:18:43;;;;;;;12.53;5.83;;;19.60;99.90;;;;;;5033155;28;20060;-80
2022/04/13 09:21:11;;;;;;;11.23;5.70;;;19.60;99.90;;;;;;5038450;28;20037;-81
2022/04/13 09:23:37;;;;;;;12.00;5.77;;;19.80;99.90;;;;;;5039727;28;20105;-82
2022/04/13 09:26:04;;;;;;;12.67;5.80;;;19.90;99.90;;;;;;5039641;28;20076;-81
2022/04/13 09:28:30;;;;;;;13.67;6.23;;;20.20;99.90;;;;;;5041483;28;20067;-79
2022/04/13 09:30:56;;;;;;;12.97;5.70;;;20.60;99.90;;;;;;5035607;28;20038;-80
2022/04/13 09:33:25;;;;;;;9.77;5.30;;;21.30;99.90;;;;;;5032500;28;20109;-81
2022/04/13 09:35:53;;;;;;;12.43;5.60;;;22.00;99.90;;;;;;5035429;28;20044;-82
2022/04/13 09:38:19;;;;;;;11.47;5.40;;;22.20;99.90;;;;;;5038769;28;20121;-81
2022/04/13 09:40:46;;;;;;;11.80;5.23;;;22.20;99.90;;;;;;5044847;28;20029;-80
2022/04/13 09:43:13;;;;;;;10.87;5.97;;;22.20;99.90;;;;;;5045826;28;20081;-79
2022/04/13 09:45:42;;;;;;;11.07;5.93;;;22.20;99.90;;;;;;5037846;28;20064;-79
2022/04/13 09:48:10;;;;;;;11.70;6.07;;;22.30;99.90;;;;;;5039088;28;20044;-78
2022/04/13 09:50:38;;;;;;;9.37;5.30;;;22.30;99.90;;;;;;5034363;28;20045;-81
2022/04/13 09:53:08;;;;;;;8.77;4.80;;;22.20;99.90;;;;;;5034682;28;20045;-79
2022/04/13 09:55:37;;;;;;;10.27;4.67;;;22.50;99.90;;;;;;5035376;28;20049;-79
2022/04/13 09:58:04;;;;;;;10.23;5.27;;;23.00;99.90;;;;;;5041353;28;20045;-79
2022/04/13 10:00:30;;;;;;;9.00;4.40;;;23.50;99.90;;;;;;5039806;28;20042;-78
2022/04/13 10:03:07;;;;;;;8.57;4.30;;;23.80;98.50;;;;;;5032113;28;20112;-79
2022/04/13 10:05:33;;;;;;;9.73;4.20;;;23.90;98.20;;;;;;5040830;28;20044;-77
2022/04/13 10:08:03;;;;;;;8.20;4.50;;;24.00;96.90;;;;;;5032740;28;20045;-81
2022/04/13 10:10:35;;;;;;;7.00;3.63;;;23.80;96.60;;;;;;5018267;28;20096;-79
2022/04/13 10:13:01;;;;;;;11.23;4.40;;;23.60;97.00;;;;;;5037612;28;20123;-77
2022/04/13 10:15:27;;;;;;;10.43;4.15;;;23.70;96.80;;;;;;5023968;28;20059;-81
2022/04/13 10:17:58;;;;;;;11.68;5.15;;;24.10;96.40;;;;;;5039165;28;20033;-80
2022/04/13 10:20:27;;;;;;;7.63;4.45;;;24.50;96.40;;;;;;5041728;28;20044;-82
2022/04/13 10:22:58;;;;;;;9.00;4.63;;;24.80;94.90;;;;;;5039511;28;20120;-78
2022/04/13 10:25:27;;;;;;;11.20;4.68;;;24.50;94.40;;;;;;5040929;28;20036;-83
2022/04/13 10:27:57;;;;;;;10.00;4.90;;;24.00;95.00;;;;;;5035813;28;20386;-79
2022/04/13 10:30:27;;;;;;;9.07;3.88;;;24.00;95.20;;;;;;5036436;28;20436;-80
2022/04/13 10:32:58;;;;;;;8.57;4.30;;;23.90;93.60;;;;;;5048222;28;20441;-80
2022/04/13 10:35:24;;;;;;;7.10;4.13;;;24.00;94.90;;;;;;5025634;28;20052;-78
2022/04/13 10:37:51;;;;;;;12.98;4.45;;;24.50;95.00;;;;;;5032727;28;20045;-80
2022/04/13 10:40:18;;;;;;;9.50;4.25;;;24.90;93.20;;;;;;5034067;28;20076;-80
2022/04/13 10:42:48;;;;;;;7.93;3.70;;;24.90;92.70;;;;;;5033661;28;20048;-79
2022/04/13 10:45:15;;;;;;;10.07;4.43;;;25.10;93.70;;;;;;5031375;28;20129;-78
2022/04/13 10:47:53;;;;;;;8.57;4.05;;;25.50;93.80;;;;;;5040333;28;20072;-81
2022/04/13 10:50:24;;;;;;;7.25;3.42;;;26.00;92.80;;;;;;5012177;28;20053;-79
2022/04/13 10:52:56;;;;;;;5.85;3.20;;;25.40;90.30;;;;;;5035422;28;20041;-78
2022/04/13 10:55:23;;;;;;;6.75;3.25;;;24.70;90.90;;;;;;5017877;28;20037;-79
2022/04/13 10:57:52;;;;;;;7.63;3.72;;;24.10;92.70;;;;;;5029661;28;20100;-77
2022/04/13 11:00:20;;;;;;;6.47;3.70;;;23.80;93.30;;;;;;5035676;28;20045;-78
2022/04/13 11:02:52;;;;;;;7.95;3.50;;;23.40;93.20;;;;;;5018927;28;20526;-78
2022/04/13 11:05:18;;;;;;;7.50;3.60;;;23.00;94.10;;;;;;5040583;28;20102;-78
2022/04/13 11:07:44;;;;;;;6.82;2.67;;;22.70;94.10;;;;;;5039036;28;20038;-78
2022/04/13 11:10:16;;;;;;;6.72;3.35;;;22.30;94.40;;;;;;5038443;28;20045;-79
2022/04/13 11:12:43;;;;;;;7.00;3.28;;;22.10;95.00;;;;;;5035594;28;20061;-78
2022/04/13 11:15:10;;;;;;;7.32;3.47;;;21.70;96.00;;;;;;5030277;28;20183;-77
2022/04/13 11:17:40;;;;;;;7.30;3.30;;;21.40;96.20;;;;;;5039536;28;20098;-77
2022/04/13 11:20:21;;;;;;;5.97;3.30;;;21.10;98.60;;;;;;5024213;28;20509;-78
2022/04/13 11:23:07;;;;;;;6.53;3.50;;;21.00;98.80;;;;;;5002196;28;20077;-78
2022/04/13 11:25:47;;;;;;;7.23;2.70;;;20.80;99.10;;;;;;5032033;28;20105;-77
2022/04/13 11:28:23;;;;;;;6.90;2.60;;;20.70;98.90;;;;;;5033016;28;20497;-79
2022/04/13 11:31:04;;;;;;;5.10;2.20;;;20.50;98.00;;;;;;5034051;28;20084;-79
2022/04/13 11:33:47;;;;;;;5.40;1.63;;;20.40;98.40;;;;;;5052907;28;20049;-78
2022/04/13 11:36:13;;;;;;;2.73;1.60;;;20.40;97.40;;;;;;5033604;28;20038;-78
2022/04/13 11:38:46;;;;;;;6.33;2.13;;;20.50;97.30;;;;;;5035575;28;20109;-79
2022/04/13 11:41:12;;;;;;;5.07;2.30;;;20.60;96.90;;;;;;5019962;28;20053;-80
2022/04/13 11:43:39;;;;;;;5.10;1.80;;;20.40;97.90;;;;;;5039737;28;20387;-78
2022/04/13 11:46:09;;;;;;;4.73;1.87;;;20.30;97.30;;;;;;5035780;28;20099;-78
2022/04/13 11:48:35;;;;;;;5.10;1.93;;;20.20;97.10;;;;;;5035484;28;20076;-76
2022/04/13 11:51:30;;;;;;;5.93;1.50;;;20.00;97.00;;;;;;5035816;28;20053;-78
2022/04/13 11:54:06;;;;;;;7.80;2.37;;;19.80;97.70;;;;;;5023663;28;20048;-78
2022/04/13 11:56:32;;;;;;;7.83;2.73;;;19.50;98.20;;;;;;5032069;28;20054;-79
2022/04/13 11:58:58;;;;;;;8.23;2.83;;;19.40;99.30;;;;;;5039617;28;20053;-79
2022/04/13 12:01:26;;;;;;;6.77;2.97;;;19.30;99.90;;;;;;5034012;28;20500;-78
2022/04/13 12:03:54;;;;;;;9.03;3.77;;;19.30;99.90;;;;;;5038950;28;20050;-78
2022/04/13 12:06:25;;;;;;;8.37;3.30;;;19.40;99.90;;;;;;5046269;28;20048;-81
2022/04/13 12:08:53;;;;;;;7.73;3.00;;;19.80;99.90;;;;;;5038911;28;20049;-77
2022/04/13 12:11:20;;;;;;;9.93;4.40;;;19.90;99.90;;;;;;5015563;28;20038;-79
2022/04/13 12:13:48;;;;;;;11.93;4.80;;;20.00;99.90;;;;;;5020607;28;20498;-78
2022/04/13 12:16:22;;;;;;;12.60;4.87;;;20.00;99.90;;;;;;5038494;28;20065;-78
2022/04/13 12:18:49;;;;;;;8.98;4.43;;;19.90;99.90;;;;;;5042514;28;20042;-79
2022/04/13 12:21:16;;;;;;;13.30;5.13;;;19.90;99.90;;;;;;5021037;28;20049;-80
2022/04/13 12:23:43;;;;;;;11.13;4.70;;;19.90;99.90;;;;;;5039483;28;20051;-78
2022/04/13 12:26:09;;;;;;;9.93;4.37;;;19.90;99.90;;;;;;5039705;28;20049;-80
2022/04/13 12:28:36;;;;;;;12.50;4.90;;;19.90;99.90;;;;;;5044642;28;20084;-80
2022/04/13 12:31:04;;;;;;;10.17;5.07;;;19.90;99.90;;;;;;5046316;28;20041;-79
2022/04/13 12:33:31;;;;;;;8.97;3.60;;;19.90;99.90;;;;;;5035207;28;20120;-78
2022/04/13 12:35:59;;;;;;;9.50;3.40;;;19.70;99.90;;;;;;5038860;28;20051;-80